Time;durP1;ratioP1;P1;durP2;ratioP2;P2;SDS_P1;SDS_P2;PMS_P1;PMS_P2;Temp;Humidity;BMP_temperature;BMP_pressure;BME280_temperature;BME280_humidity;BME280_pressure;Samples;Min_cycle;Max_cycle;Signal;HPM_P1;HPM_P2
2022/08/12 00:43:50;;;;;;;9.13;4.28;;;;;;;23.47;41.66;101804.88;6072711;23;20138;-66
2022/08/12 00:50:31;;;;;;;;;;;;;;;;;;;;;
2022/08/12 01:01:58;;;;;;;8.15;4.47;;;;;;;23.37;41.62;101795.75;5989515;23;20445;-65
2022/08/12 01:21:15;;;;;;;;;;;;;;;;;;;;;
2022/08/12 01:45:46;;;;;;;3.97;3.55;;;;;;;23.12;41.59;101800.81;6001489;23;20045;-64
2022/08/12 01:48:38;;;;;;;6.93;3.63;;;;;;;23.11;41.54;101806.78;6117325;23;20010;-64
2022/08/12 01:51:19;;;;;;;6.47;4.15;;;;;;;23.06;41.69;101796.41;6219765;23;20024;-64
2022/08/12 01:54:03;;;;;;;4.57;3.75;;;;;;;22.96;41.88;101791.78;6244341;23;20356;-64
2022/08/12 01:56:50;;;;;;;5.57;3.67;;;;;;;22.94;42.18;101794.09;6244092;23;20011;-65
2022/08/12 01:59:48;;;;;;;3.88;3.33;;;;;;;22.98;41.98;101789.47;6243516;23;20399;-64
2022/08/12 02:02:17;;;;;;;4.35;3.50;;;;;;;22.96;41.95;101785.31;6244532;23;20078;-64
2022/08/12 02:14:04;;;;;;;9.07;3.65;;;;;;;22.91;42.20;101779.72;6244511;23;20085;-64
2022/08/12 02:16:49;;;;;;;5.82;3.92;;;;;;;22.79;42.35;101783.91;6243779;23;20454;-64
2022/08/12 02:19:36;;;;;;;7.25;3.95;;;;;;;22.86;42.18;101793.97;6243525;23;20087;-64
2022/08/12 02:22:28;;;;;;;4.65;4.15;;;;;;;22.83;42.33;101786.09;6244702;23;20012;-64
2022/08/12 02:25:06;;;;;;;4.68;3.58;;;;;;;22.81;42.87;101779.91;6244227;23;20016;-64
2022/08/12 02:27:49;;;;;;;6.68;4.07;;;;;;;22.75;43.10;101776.31;6245095;23;20008;-64
2022/08/12 02:30:18;;;;;;;6.93;4.30;;;;;;;22.69;42.82;101778.44;6245032;23;20148;-64
2022/08/12 02:32:45;;;;;;;5.25;3.50;;;;;;;22.74;42.86;101777.50;6245565;23;20011;-64
2022/08/12 02:35:22;;;;;;;5.55;4.13;;;;;;;22.71;42.82;101775.28;6246317;23;20391;-64
2022/08/12 02:37:51;;;;;;;4.95;4.18;;;;;;;22.64;43.11;101775.72;6246073;23;20340;-64
2022/08/12 02:40:18;;;;;;;4.40;3.60;;;;;;;22.62;43.04;101777.16;6245116;23;20007;-64
2022/08/12 02:43:11;;;;;;;6.55;4.18;;;;;;;22.58;43.01;101781.78;6245765;23;20095;-64
2022/08/12 02:45:51;;;;;;;6.03;3.85;;;;;;;22.61;42.93;101776.31;6246102;23;20412;-64
2022/08/12 02:48:26;;;;;;;5.28;4.07;;;;;;;22.58;43.22;101770.44;6246514;23;20028;-64
2022/08/12 02:50:55;;;;;;;5.57;4.60;;;;;;;22.53;43.36;101775.06;6246313;23;20007;-65
2022/08/12 02:53:21;;;;;;;9.98;4.78;;;;;;;22.51;43.49;101783.00;6245317;23;20047;-65
2022/08/12 02:55:47;;;;;;;4.20;3.80;;;;;;;22.53;43.60;101774.22;6245709;23;20481;-64
2022/08/12 02:58:13;;;;;;;5.32;4.63;;;;;;;22.42;43.68;101784.88;6247518;23;20012;-64
2022/08/12 03:00:40;;;;;;;9.80;4.68;;;;;;;22.36;43.78;101777.66;6245054;23;20331;-64
2022/08/12 03:03:08;;;;;;;6.15;4.70;;;;;;;22.39;43.89;101781.81;6246189;23;20016;-65
2022/08/12 03:05:35;;;;;;;5.32;4.68;;;;;;;22.38;44.09;101780.16;6245721;23;20012;-65
2022/08/12 03:08:03;;;;;;;10.13;4.18;;;;;;;22.44;44.02;101776.94;6245428;23;20149;-64
2022/08/12 03:10:34;;;;;;;9.63;4.90;;;;;;;22.36;43.85;101779.63;6245629;23;20012;-64
2022/08/12 03:13:02;;;;;;;7.47;4.65;;;;;;;22.37;43.72;101773.66;6246411;23;20342;-65
2022/08/12 03:15:30;;;;;;;5.55;3.80;;;;;;;22.42;44.00;101776.38;6245648;23;20004;-65
2022/08/12 03:18:06;;;;;;;6.78;4.75;;;;;;;22.38;43.96;101778.16;6246357;23;20004;-64
2022/08/12 03:20:36;;;;;;;7.07;4.90;;;;;;;22.32;43.96;101775.72;6246132;23;20062;-65
2022/08/12 03:23:04;;;;;;;5.88;4.75;;;;;;;22.32;44.02;101776.56;6245468;23;20011;-65
2022/08/12 03:25:34;;;;;;;9.25;4.93;;;;;;;22.30;44.10;101768.41;6245686;23;20020;-65
2022/08/12 03:28:03;;;;;;;4.55;4.15;;;;;;;22.30;44.26;101771.22;6246956;23;20084;-64
2022/08/12 03:30:31;;;;;;;7.07;4.15;;;;;;;22.34;44.17;101768.63;6246187;23;20008;-65
2022/08/12 03:32:59;;;;;;;6.15;4.55;;;;;;;22.32;44.34;101770.06;6246622;23;20004;-64
2022/08/12 03:35:27;;;;;;;6.43;4.25;;;;;;;22.32;44.30;101761.59;6243735;23;20325;-64
2022/08/12 03:37:55;;;;;;;11.20;4.72;;;;;;;22.29;44.33;101763.06;6245814;23;20008;-65
2022/08/12 04:02:24;;;;;;;6.85;6.15;;;;;;;21.95;45.28;101766.16;6245690;23;20483;-64
2022/08/12 04:04:49;;;;;;;8.20;6.35;;;;;;;21.94;45.17;101767.31;6244454;23;20000;-64
2022/08/12 04:07:15;;;;;;;6.93;5.45;;;;;;;21.87;45.39;101770.53;6245073;23;20023;-64
2022/08/12 04:09:43;;;;;;;8.90;5.57;;;;;;;21.86;45.55;101766.03;6245036;23;20012;-64
2022/08/12 04:14:57;;;;;;;6.95;5.90;;;;;;;21.83;45.53;101765.81;6244761;23;20015;-64
2022/08/12 04:17:26;;;;;;;10.02;6.30;;;;;;;21.84;45.73;101773.97;6244208;23;20015;-64
2022/08/12 04:19:54;;;;;;;9.68;6.15;;;;;;;21.81;45.52;101778.25;6244027;23;20323;-64
2022/08/12 04:22:21;;;;;;;6.90;6.20;;;;;;;21.77;45.88;101780.03;6244567;23;20004;-64
2022/08/12 04:24:46;;;;;;;6.97;6.28;;;;;;;21.67;46.09;101779.31;6245003;23;20004;-63
2022/08/12 04:27:11;;;;;;;8.10;5.60;;;;;;;21.77;45.98;101771.53;6245277;23;20000;-63
2022/08/12 04:29:38;;;;;;;7.57;5.97;;;;;;;21.72;46.17;101767.94;6244829;23;20101;-63
2022/08/12 04:32:05;;;;;;;11.05;6.35;;;;;;;21.69;46.13;101772.22;6244101;23;20019;-63
2022/08/12 04:34:31;;;;;;;9.45;6.75;;;;;;;21.66;46.38;101770.00;6244315;23;20015;-64
2022/08/12 04:36:59;;;;;;;9.60;6.03;;;;;;;21.68;46.44;101781.84;6245123;23;20306;-63
2022/08/12 04:39:25;;;;;;;10.02;6.20;;;;;;;21.68;46.32;101775.34;6244577;23;20046;-63
2022/08/12 04:41:58;;;;;;;11.70;7.32;;;;;;;21.56;46.63;101776.63;6245111;23;20028;-63
2022/08/12 04:44:23;;;;;;;12.32;6.57;;;;;;;21.64;46.51;101777.09;6245490;23;20007;-63
2022/08/12 04:46:48;;;;;;;6.20;5.50;;;;;;;21.66;46.55;101774.81;6244630;23;20004;-63
2022/08/12 04:49:13;;;;;;;7.22;6.32;;;;;;;21.65;46.57;101776.78;6245222;23;20012;-63
2022/08/12 04:51:39;;;;;;;8.48;6.82;;;;;;;21.62;46.81;101771.78;6244437;23;20325;-63
2022/08/12 04:54:05;;;;;;;11.30;7.47;;;;;;;21.59;47.06;101771.53;6243815;23;20004;-63
2022/08/12 04:56:31;;;;;;;7.05;6.03;;;;;;;21.65;46.87;101782.44;6244562;23;20000;-63
2022/08/12 04:58:58;;;;;;;10.98;7.40;;;;;;;21.62;47.16;101771.78;6245065;23;20011;-64
2022/08/12 05:01:30;;;;;;;6.88;6.15;;;;;;;21.64;47.17;101771.47;6244088;23;20018;-63
2022/08/12 05:03:56;;;;;;;7.97;6.82;;;;;;;21.62;47.24;101768.94;6244894;23;20042;-63
2022/08/12 05:06:23;;;;;;;10.85;6.43;;;;;;;21.64;47.06;101775.13;6245691;23;20004;-63
2022/08/12 05:08:49;;;;;;;9.88;5.93;;;;;;;21.66;47.18;101772.84;6241272;23;20011;-64
2022/08/12 05:11:15;;;;;;;7.40;6.30;;;;;;;21.67;47.22;101771.69;6243836;23;20022;-64
2022/08/12 05:13:43;;;;;;;10.77;7.65;;;;;;;21.65;47.25;101770.31;6243258;23;20000;-63
2022/08/12 05:16:09;;;;;;;11.13;6.32;;;;;;;21.69;47.16;101769.41;6244295;23;20011;-64
2022/08/12 05:18:39;;;;;;;15.85;7.72;;;;;;;21.66;47.41;101770.00;6245021;23;20022;-63
2022/08/12 05:21:06;;;;;;;10.90;5.78;;;;;;;21.67;47.58;101763.22;6243307;23;20038;-63
2022/08/12 05:23:34;;;;;;;11.95;6.85;;;;;;;21.67;47.72;101768.84;6243983;23;20083;-64
2022/08/12 05:26:00;;;;;;;12.32;6.93;;;;;;;21.67;47.53;101766.03;6244224;23;20052;-63
2022/08/12 05:28:27;;;;;;;8.63;5.78;;;;;;;21.71;47.38;101775.56;6243717;23;20324;-63
2022/08/12 05:30:54;;;;;;;12.20;7.03;;;;;;;21.67;47.56;101783.00;6243990;23;20027;-63
2022/08/12 05:33:19;;;;;;;12.13;5.88;;;;;;;21.69;47.54;101786.38;6243765;23;20000;-63
2022/08/12 05:35:46;;;;;;;10.13;6.28;;;;;;;21.70;47.64;101784.38;6242708;23;20075;-64
2022/08/12 05:40:59;;;;;;;13.68;8.10;;;;;;;21.66;47.50;101798.28;6244079;23;20126;-63
2022/08/12 05:43:25;;;;;;;11.25;7.22;;;;;;;21.68;47.83;101792.28;6243648;23;20012;-63
2022/08/12 05:45:51;;;;;;;9.40;6.10;;;;;;;21.72;47.85;101794.19;6244295;23;20438;-63
2022/08/12 05:48:17;;;;;;;13.02;8.07;;;;;;;21.73;47.75;101787.44;6244301;23;20316;-64
2022/08/12 05:50:44;;;;;;;12.73;7.07;;;;;;;21.72;47.58;101801.84;6242864;23;20008;-63
2022/08/12 05:53:10;;;;;;;16.55;8.38;;;;;;;21.64;47.98;101794.91;6243268;23;20008;-63
2022/08/12 05:55:36;;;;;;;11.82;7.10;;;;;;;21.72;47.90;101794.19;6243993;23;20059;-64
2022/08/12 05:58:03;;;;;;;11.68;6.80;;;;;;;21.76;47.72;101794.44;6243611;23;20001;-63
2022/08/12 06:00:31;;;;;;;17.60;8.90;;;;;;;21.69;48.04;101800.50;6243911;23;20416;-63
2022/08/12 06:03:00;;;;;;;14.25;8.30;;;;;;;21.75;47.81;101799.25;6244042;23;20432;-63
2022/08/12 06:05:33;;;;;;;11.93;7.22;;;;;;;21.78;47.92;101812.78;6243611;23;20074;-64
2022/08/12 06:08:01;;;;;;;6.60;5.80;;;;;;;21.82;47.75;101804.53;6244735;23;20015;-64
2022/08/12 06:10:26;;;;;;;11.13;6.55;;;;;;;21.83;47.84;101805.38;6243263;23;20008;-65
2022/08/12 06:12:52;;;;;;;13.25;8.38;;;;;;;21.83;47.94;101799.72;6243647;23;20012;-64
2022/08/12 06:15:19;;;;;;;8.23;5.80;;;;;;;21.90;47.96;101800.16;6244214;23;20039;-64
2022/08/12 06:17:45;;;;;;;9.73;8.48;;;;;;;21.83;48.23;101799.72;6241649;23;20019;-64
2022/08/12 06:20:12;;;;;;;12.75;8.13;;;;;;;21.90;47.96;101803.00;6243927;23;20004;-64
2022/08/12 06:22:42;;;;;;;13.25;7.07;;;;;;;22.01;47.30;101801.69;6243757;23;20070;-64
2022/08/12 06:25:08;;;;;;;13.15;6.10;;;;;;;22.05;47.71;101800.75;6241208;23;20012;-64
2022/08/12 06:27:47;;;;;;;12.23;7.97;;;;;;;22.13;47.65;101804.91;6236233;23;20069;-66
2022/08/12 06:30:59;;;;;;;;;;;;;;;;;;;;;
2022/08/12 06:44:19;;;;;;;7.97;5.47;;;;;;;22.50;47.24;101798.31;5952627;24;20027;-67
2022/08/12 06:47:02;;;;;;;11.60;4.65;;;;;;;22.60;46.95;101799.25;6009762;23;20007;-67
2022/08/12 06:56:15;;;;;;;11.80;7.22;;;;;;;22.79;46.91;101786.72;6068449;23;20064;-67
2022/08/12 06:59:26;;;;;;;8.48;4.75;;;;;;;22.81;46.76;101777.09;6077223;23;20005;-67
2022/08/12 07:26:36;;;;;;;;;;;;;;;;;;;;;
2022/08/12 07:33:03;;;;;;;12.95;7.05;;;;;;;23.72;45.57;101803.47;6039034;23;20018;-66
2022/08/12 07:49:59;;;;;;;10.60;5.22;;;;;;;24.24;43.76;101803.06;6210008;23;20043;-70
2022/08/12 07:52:59;;;;;;;10.95;4.60;;;;;;;24.34;44.07;101799.97;6195370;23;20024;-64
2022/08/12 07:56:19;;;;;;;7.55;4.57;;;;;;;24.41;43.37;101791.88;6182137;23;20005;-67
2022/08/12 08:00:06;;;;;;;;;;;;;;;;;;;;;
2022/08/12 08:03:35;;;;;;;;;;;;;;;;;;;;;
2022/08/12 08:06:45;;;;;;;6.85;4.03;;;;;;;24.77;41.67;101807.94;6086544;23;20176;-67
2022/08/12 08:18:59;;;;;;;10.75;4.30;;;;;;;25.21;39.71;101818.31;6203548;23;20036;-67
2022/08/12 08:21:50;;;;;;;13.63;4.40;;;;;;;25.29;39.35;101810.16;6159994;23;20036;-66
2022/08/12 08:24:58;;;;;;;6.32;4.10;;;;;;;25.27;39.68;101812.47;6209091;23;20012;-67
2022/08/12 08:28:03;;;;;;;7.82;4.20;;;;;;;25.40;39.69;101809.50;6206355;23;20466;-66
2022/08/12 08:34:54;;;;;;;;;;;;;;;;;;;;;
2022/08/12 08:48:15;;;;;;;10.15;4.57;;;;;;;25.92;38.58;101808.78;6086563;23;20342;-68
2022/08/12 08:51:46;;;;;;;9.95;4.60;;;;;;;26.04;37.59;101808.94;6001134;23;20088;-68
2022/08/12 08:55:18;;;;;;;8.10;4.07;;;;;;;26.25;37.47;101820.47;6098803;23;20014;-68
2022/08/12 08:58:37;;;;;;;9.48;4.03;;;;;;;26.29;38.28;101815.78;6118836;23;20151;-65
2022/08/12 09:01:47;;;;;;;9.90;3.95;;;;;;;26.36;36.89;101809.56;6061487;23;20077;-68
2022/08/12 09:08:25;;;;;;;9.88;3.63;;;;;;;26.47;35.94;101802.38;6211252;23;20078;-70
2022/08/12 09:33:11;;;;;;;;;;;;;;;;;;;;;
2022/08/12 10:06:28;;;;;;;8.75;3.55;;;;;;;27.64;32.46;101763.78;6083455;23;20424;-64
2022/08/12 10:33:52;;;;;;;3.95;2.83;;;;;;;28.06;31.35;101751.50;6002000;23;20084;-67
2022/08/12 10:37:08;;;;;;;6.80;2.70;;;;;;;28.01;30.73;101749.72;5947775;24;20013;-67
2022/08/12 10:40:15;;;;;;;3.78;2.70;;;;;;;28.01;30.45;101728.91;5898149;24;20044;-65
2022/08/12 10:43:51;;;;;;;8.07;2.90;;;;;;;28.03;31.36;101730.22;5995139;23;20016;-66
2022/08/12 10:47:01;;;;;;;7.05;2.90;;;;;;;28.09;29.92;101725.13;5890531;24;20037;-66
2022/08/12 10:50:14;;;;;;;5.00;2.70;;;;;;;27.94;30.50;101715.19;5936330;23;20011;-67
2022/08/12 10:53:29;;;;;;;5.05;2.72;;;;;;;28.07;30.57;101725.50;6166642;23;20008;-64
2022/08/12 10:56:23;;;;;;;5.05;2.80;;;;;;;28.08;31.63;101721.44;6241387;23;20111;-64
2022/08/12 10:59:25;;;;;;;3.17;2.72;;;;;;;28.06;30.67;101723.81;6235561;23;20012;-68
2022/08/12 11:02:49;;;;;;;;;;;;;;;;;;;;;
2022/08/12 11:06:01;;;;;;;6.32;3.35;;;;;;;28.26;29.83;101716.41;6186821;23;20403;-64
2022/08/12 11:12:55;;;;;;;3.80;3.13;;;;;;;28.27;30.11;101703.78;6072115;23;20014;-65
2022/08/12 11:29:41;;;;;;;5.70;3.17;;;;;;;28.30;30.17;101691.66;5859495;24;20102;-66
2022/08/12 11:32:47;;;;;;;4.63;3.35;;;;;;;28.35;29.69;101682.03;5966080;23;20043;-65
2022/08/12 11:43:10;;;;;;;;;;;;;;;;;;;;;
2022/08/12 11:56:41;;;;;;;5.47;2.70;;;;;;;28.70;28.55;101664.47;5866098;24;20269;-66
2022/08/12 12:03:48;;;;;;;6.00;3.20;;;;;;;28.72;30.36;101651.47;5889648;24;20503;-66
2022/08/12 12:10:31;;;;;;;6.20;2.83;;;;;;;28.78;30.17;101649.22;5863394;24;20486;-68
2022/08/12 12:17:10;;;;;;;6.22;3.33;;;;;;;28.72;30.31;101633.50;5805167;24;20481;-65
2022/08/12 12:24:18;;;;;;;4.82;3.10;;;;;;;28.73;31.36;101649.44;5730281;25;20016;-67
2022/08/12 12:27:53;;;;;;;;;;;;;;;;;;;;;
2022/08/12 12:30:49;;;;;;;3.42;3.08;;;;;;;28.87;28.89;101635.63;5752593;24;20082;-66
2022/08/12 12:37:02;;;;;;;6.53;3.05;;;;;;;28.94;27.59;101630.16;5825403;24;20021;-68
2022/08/12 12:46:50;;;;;;;;;;;;;;;;;;;;;
2022/08/12 12:50:02;;;;;;;3.97;2.72;;;;;;;28.86;28.40;101616.84;6066082;23;20109;-66
2022/08/12 12:57:07;;;;;;;;;;;;;;;;;;;;;
2022/08/12 13:03:00;;;;;;;5.47;3.40;;;;;;;29.01;27.62;101601.00;6241623;23;20344;-66
2022/08/12 13:05:41;;;;;;;7.20;3.85;;;;;;;29.10;27.70;101599.66;6237018;23;20012;-66
2022/08/12 13:09:12;;;;;;;8.40;3.15;;;;;;;29.04;28.35;101597.41;6240611;23;20012;-66
2022/08/12 13:12:23;;;;;;;6.28;3.40;;;;;;;29.08;28.99;101584.06;6119608;23;20029;-67
2022/08/12 13:15:51;;;;;;;6.97;3.50;;;;;;;29.15;29.08;101595.72;6241383;23;20399;-69
2022/08/12 13:22:22;;;;;;;7.55;3.92;;;;;;;29.07;28.89;101586.09;6176095;23;20008;-66
2022/08/12 13:29:54;;;;;;;;;;;;;;;;;;;;;
2022/08/12 13:33:14;;;;;;;5.90;3.70;;;;;;;29.05;28.78;101582.78;6027388;23;20019;-68
2022/08/12 13:36:42;;;;;;;4.45;3.22;;;;;;;28.99;28.89;101578.50;5958168;23;20019;-68
2022/08/12 13:39:20;;;;;;;6.80;3.60;;;;;;;29.09;28.05;101569.41;6005114;23;20039;-67
2022/08/12 13:45:50;;;;;;;6.25;3.45;;;;;;;29.23;28.14;101569.00;6146416;23;20087;-68
2022/08/12 13:49:10;;;;;;;7.18;3.70;;;;;;;29.26;28.35;101564.59;6014182;23;20045;-65
2022/08/12 13:52:27;;;;;;;;;;;;;;;;;;;;;
2022/08/12 13:59:54;;;;;;;4.47;3.08;;;;;;;29.24;28.18;101546.94;5895590;24;20016;-66
2022/08/12 14:13:52;;;;;;;6.03;3.30;;;;;;;29.31;27.79;101541.44;5810242;24;20034;-65
2022/08/12 14:17:01;;;;;;;6.57;3.20;;;;;;;29.28;27.97;101543.03;5916335;24;20020;-65
2022/08/12 14:20:59;;;;;;;;;;;;;;;;;;;;;
2022/08/12 14:27:38;;;;;;;5.43;2.92;;;;;;;29.26;27.32;101531.09;5893652;24;20049;-64
2022/08/12 14:30:55;;;;;;;5.20;2.85;;;;;;;29.23;27.67;101531.00;5974125;23;20012;-64
2022/08/12 14:37:42;;;;;;;;;;;;;;;;;;;;;
2022/08/12 14:44:56;;;;;;;6.32;3.05;;;;;;;29.37;27.35;101519.97;5945400;24;20012;-66
2022/08/12 14:55:14;;;;;;;3.40;3.10;;;;;;;29.29;27.37;101510.38;5896444;24;20017;-66
2022/08/12 14:58:34;;;;;;;5.07;2.75;;;;;;;29.21;28.31;101501.97;5895452;24;20093;-64
2022/08/12 15:08:13;;;;;;;5.18;2.60;;;;;;;29.18;27.44;101499.81;5931120;24;20550;-62
2022/08/12 15:11:25;;;;;;;5.65;2.50;;;;;;;29.14;25.98;101496.84;6047785;23;20008;-64
2022/08/12 15:14:07;;;;;;;3.45;2.80;;;;;;;29.13;34.31;101500.09;6230733;23;20099;-66
2022/08/12 15:17:18;;;;;;;;;;;;;;;;;;;;;
2022/08/12 15:27:52;;;;;;;4.03;2.45;;;;;;;29.11;26.83;101498.41;6112851;23;20057;-65
2022/08/12 15:31:05;;;;;;;4.13;2.78;;;;;;;29.17;25.91;101501.03;6107753;23;20033;-66
2022/08/12 15:33:42;;;;;;;8.90;2.67;;;;;;;29.07;26.10;101486.03;6134147;23;20091;-65
2022/08/12 15:36:25;;;;;;;5.20;2.90;;;;;;;29.11;25.94;101489.84;6241814;23;20007;-66
2022/08/12 15:39:20;;;;;;;2.28;2.08;;;;;;;29.09;27.44;101492.25;6228395;23;20007;-69
2022/08/12 15:42:10;;;;;;;2.83;2.20;;;;;;;29.10;26.45;101485.31;6235254;23;20001;-68
2022/08/12 15:45:21;;;;;;;5.30;2.60;;;;;;;29.13;26.45;101489.50;6239576;23;20135;-65
2022/08/12 15:48:07;;;;;;;4.68;2.60;;;;;;;29.13;30.10;101494.38;6240294;23;20070;-68
2022/08/12 15:50:48;;;;;;;5.05;2.63;;;;;;;29.16;26.98;101493.63;6209632;23;20020;-67
2022/08/12 15:57:19;;;;;;;4.97;2.38;;;;;;;29.07;31.64;101474.59;6211375;23;20479;-68
2022/08/12 16:07:33;;;;;;;;;;;;;;;;;;;;;
2022/08/12 16:24:45;;;;;;;6.15;3.35;;;;;;;29.00;27.28;101462.97;5918033;24;20020;-67
2022/08/12 17:05:53;;;;;;;4.45;2.20;;;;;;;28.76;25.85;101448.75;5906501;24;20072;-63
2022/08/12 17:12:20;;;;;;;;;;;;;;;;;;;;;
2022/08/12 17:15:23;;;;;;;3.45;2.10;;;;;;;28.75;26.71;101449.97;5895131;23;20090;-66
2022/08/12 17:21:54;;;;;;;4.35;2.40;;;;;;;28.70;27.58;101451.06;6061629;23;20432;-63
2022/08/12 17:28:34;;;;;;;4.82;2.20;;;;;;;28.66;26.29;101443.56;6023064;23;20022;-65
2022/08/12 17:31:35;;;;;;;4.30;2.38;;;;;;;28.63;28.12;101442.25;6097967;23;20013;-65
2022/08/12 17:44:09;;;;;;;3.92;2.10;;;;;;;28.53;27.12;101435.06;6211200;23;20071;-65
2022/08/12 17:50:51;;;;;;;3.05;1.98;;;;;;;28.50;27.02;101437.78;6085292;23;20518;-63
2022/08/12 17:53:34;;;;;;;6.50;2.40;;;;;;;28.46;26.50;101440.53;6172603;23;20103;-64
2022/08/12 18:04:13;;;;;;;4.43;2.20;;;;;;;28.43;27.75;101452.69;6032555;23;20225;-64
2022/08/12 18:10:08;;;;;;;4.55;2.50;;;;;;;28.33;30.14;101462.53;6185200;23;20075;-66
2022/08/12 18:13:19;;;;;;;3.88;2.33;;;;;;;28.32;30.42;101460.03;6240491;23;20035;-67
2022/08/12 18:16:44;;;;;;;6.57;2.40;;;;;;;28.31;31.39;101470.63;6162319;23;20019;-66
2022/08/12 18:19:41;;;;;;;3.95;2.47;;;;;;;28.28;31.98;101461.94;6240254;23;20059;-66
2022/08/12 19:08:34;;;;;;;10.45;3.10;;;;;;;27.44;36.99;101481.50;5863195;24;20032;-65
2022/08/12 19:32:20;;;;;;;6.38;2.50;;;;;;;27.03;36.36;101489.75;6050496;23;20010;-67
2022/08/12 19:46:46;;;;;;;;;;;;;;;;;;;;;
2022/08/12 19:49:58;;;;;;;;;;;;;;;;;;;;;
2022/08/12 19:53:28;;;;;;;7.55;2.60;;;;;;;26.62;35.99;101494.31;5792062;24;20037;-65
2022/08/12 19:56:19;;;;;;;5.53;2.30;;;;;;;26.61;35.94;101506.91;5879780;24;20605;-63
2022/08/12 20:02:33;;;;;;;4.35;2.38;;;;;;;26.43;35.75;101505.31;6221776;23;20077;-66
2022/08/12 20:23:41;;;;;;;;;;;;;;;;;;;;;
2022/08/12 20:34:10;;;;;;;;;;;;;;;;;;;;;
2022/08/12 20:37:41;;;;;;;;;;;;;;;;;;;;;
2022/08/12 20:48:23;;;;;;;;;;;;;;;;;;;;;
2022/08/12 20:51:47;;;;;;;;;;;;;;;;;;;;;
2022/08/12 21:18:44;;;;;;;;;;;;;;;;;;;;;
2022/08/12 21:21:46;;;;;;;5.20;3.08;;;;;;;25.57;36.84;101500.84;5955536;23;20019;-67
2022/08/12 21:39:00;;;;;;;6.05;3.25;;;;;;;25.41;36.65;101503.41;5965443;24;20012;-66
2022/08/12 21:45:01;;;;;;;5.63;3.15;;;;;;;25.30;37.20;101496.41;5945015;23;20023;-64
2022/08/12 21:47:26;;;;;;;6.90;3.15;;;;;;;25.30;37.05;101502.09;6057544;23;20006;-64
2022/08/12 21:49:55;;;;;;;8.20;3.50;;;;;;;25.26;36.73;101501.09;6176032;23;20413;-63
2022/08/12 21:52:20;;;;;;;10.15;3.63;;;;;;;25.16;38.04;101503.13;6243202;23;20443;-63
2022/08/12 21:54:45;;;;;;;4.28;3.63;;;;;;;25.18;37.92;101511.31;6244628;23;20094;-64
2022/08/12 21:57:14;;;;;;;6.28;3.72;;;;;;;25.13;37.87;101511.50;6244451;22;20022;-63
2022/08/12 21:59:40;;;;;;;7.93;3.83;;;;;;;25.09;37.63;101510.47;6243934;23;20014;-64
2022/08/12 22:06:16;;;;;;;4.13;3.58;;;;;;;25.06;37.49;101514.78;6242523;23;20015;-64
2022/08/12 22:07:38;;;;;;;6.32;3.45;;;;;;;25.09;37.33;101524.66;6243729;23;20096;-63
2022/08/12 22:10:04;;;;;;;7.53;3.80;;;;;;;25.03;36.88;101517.47;6244866;23;20024;-63
2022/08/12 22:12:33;;;;;;;8.20;3.60;;;;;;;25.00;37.25;101512.50;6243965;23;20477;-63
2022/08/12 22:14:59;;;;;;;4.45;3.80;;;;;;;24.98;37.57;101518.47;6241540;23;20075;-62
2022/08/12 22:17:34;;;;;;;5.30;3.92;;;;;;;25.01;37.93;101517.00;6242292;23;20331;-62
2022/08/12 22:20:05;;;;;;;6.93;3.80;;;;;;;24.93;36.83;101522.34;6243900;23;20004;-63
2022/08/12 22:22:30;;;;;;;5.40;3.90;;;;;;;24.90;36.94;101516.47;6242553;23;20355;-63
2022/08/12 22:24:55;;;;;;;6.28;3.88;;;;;;;24.87;37.08;101519.97;6243321;23;20007;-62
2022/08/12 22:27:20;;;;;;;7.57;3.38;;;;;;;24.88;37.99;101530.19;6242722;23;20008;-63
2022/08/12 22:32:30;;;;;;;8.82;3.55;;;;;;;24.80;38.01;101522.47;6244571;23;20023;-62
2022/08/12 22:37:44;;;;;;;4.25;3.47;;;;;;;24.79;37.64;101521.66;6244051;23;20012;-63
2022/08/12 22:40:10;;;;;;;6.60;3.47;;;;;;;24.70;38.09;101526.50;6242634;23;20369;-64
2022/08/12 22:48:04;;;;;;;7.07;3.83;;;;;;;24.67;38.32;101524.31;6243871;23;20486;-62
2022/08/12 22:50:29;;;;;;;11.63;3.60;;;;;;;24.64;37.91;101525.84;6244129;23;20087;-62
2022/08/12 22:53:13;;;;;;;7.60;3.92;;;;;;;24.63;37.93;101520.47;6245686;23;20515;-62
2022/08/12 22:55:40;;;;;;;6.20;3.58;;;;;;;24.56;38.16;101520.97;6245000;23;20397;-62
2022/08/12 22:58:05;;;;;;;4.50;3.50;;;;;;;24.55;37.58;101519.28;6244809;23;20320;-62
2022/08/12 23:00:32;;;;;;;7.03;3.80;;;;;;;24.53;38.04;101524.47;6245938;23;20012;-62
2022/08/12 23:02:57;;;;;;;10.13;3.80;;;;;;;24.53;37.91;101521.66;6245286;23;20028;-62
2022/08/12 23:05:23;;;;;;;8.30;4.00;;;;;;;24.47;38.72;101514.44;6245676;23;20365;-62
2022/08/12 23:07:48;;;;;;;10.93;3.92;;;;;;;24.35;38.50;101522.75;6246306;23;20004;-62
2022/08/12 23:10:13;;;;;;;5.05;3.53;;;;;;;24.43;38.11;101516.28;6244777;23;20351;-62
2022/08/12 23:15:23;;;;;;;8.55;3.70;;;;;;;24.40;38.62;101519.78;6234759;23;20452;-62
2022/08/12 23:17:48;;;;;;;4.75;3.35;;;;;;;24.37;38.85;101517.59;6244505;23;20004;-63
2022/08/12 23:20:13;;;;;;;7.18;3.80;;;;;;;24.40;38.45;101520.59;6245103;23;20062;-62
2022/08/12 23:22:39;;;;;;;5.10;3.55;;;;;;;24.32;38.47;101518.56;6245803;23;19999;-63
2022/08/12 23:25:05;;;;;;;7.22;3.92;;;;;;;24.30;38.53;101515.22;6244165;23;20078;-63
2022/08/12 23:30:14;;;;;;;8.80;3.33;;;;;;;24.28;38.14;101522.38;6244936;23;20023;-63
2022/08/12 23:32:39;;;;;;;8.20;3.70;;;;;;;24.25;38.24;101519.06;6244695;23;20008;-63
2022/08/12 23:35:05;;;;;;;5.03;3.88;;;;;;;24.15;38.63;101522.19;6245225;23;20061;-63
2022/08/12 23:37:31;;;;;;;6.88;4.07;;;;;;;24.16;38.41;101517.34;6245756;23;20005;-63
2022/08/12 23:39:57;;;;;;;10.27;4.20;;;;;;;24.13;38.56;101515.16;6244706;23;20435;-63
2022/08/12 23:42:23;;;;;;;5.05;4.30;;;;;;;24.12;38.54;101513.50;6245514;23;20004;-63
2022/08/12 23:44:52;;;;;;;6.45;4.10;;;;;;;24.08;38.42;101518.16;6244576;23;20034;-63
2022/08/12 23:47:17;;;;;;;7.55;4.38;;;;;;;24.08;38.30;101518.16;6245566;23;20008;-62
2022/08/12 23:49:43;;;;;;;5.85;4.15;;;;;;;24.06;38.98;101515.66;6245774;23;20455;-63
2022/08/12 23:52:11;;;;;;;8.48;4.70;;;;;;;24.01;38.70;101510.13;6243243;23;20008;-62
2022/08/12 23:54:43;;;;;;;5.13;4.38;;;;;;;24.00;38.79;101514.13;6245043;23;20431;-63
2022/08/12 23:57:15;;;;;;;5.38;4.78;;;;;;;23.97;39.24;101511.94;6245183;23;20000;-62
2022/08/12 23:59:47;;;;;;;7.03;4.75;;;;;;;23.94;39.23;101504.13;6243445;23;20000;-63
